• Join FlightAware (Why Join?)
  • Login
  • US Flag 
10:15AM EDT


 

Airport Tracker/Info


-or-


 

Live Flight TrackerFlight Track Log ✈ LBQ670 ✈ 04-May-2013 ✈ KSUS - KLUK

Flight Track Log - Related Links

Times and Time Zones

All times are in EDT time to prevent confusion due to time zone crossing. See the LBQ670 flight status page for this flight to view local times or setup timezone preferences in your user account.

Time Position Orientation Groundspeed Altitude Reporting Facility
EDT Latitude Longitude Course Direction KTS MPH feet Rate Location/Type
06:10AM 38.6717 -90.5869 78° East 177 204 2,500  Level Kansas City Center
06:11AM 38.6756 -90.5136 86° East 213 245 5,100 2,400 Climbing Kansas City Center
06:12AM 38.6828 -90.4369 83° East 215 247 7,400 1,980 Climbing Kansas City Center
06:13AM 38.6908 -90.3589 82° East 233 268 9,200 1,800 Climbing Kansas City Center
06:14AM 38.6994 -90.2733 83° East 242 278 11,000 1,800 Climbing Kansas City Center
06:15AM 38.7021 -90.2002 111° Southeast  Level FlightAware Approximate
06:15AM 38.7075 -90.1842 83° East 250 288 12,800  Level Kansas City Center
06:16AM 38.7158 -90.0936 83° East 256 295 14,700 1,860 Climbing Kansas City Center
06:17AM 38.7239 -90.0039 83° East 255 293 16,600 1,800 Climbing Kansas City Center
06:18AM 38.7319 -89.9119 84° East 260 299 18,400 1,200 Climbing Kansas City Center
06:19AM 38.7408 -89.8142 83° East 270 311 19,000 1,140 Climbing Kansas City Center
06:20AM 38.7511 -89.7081 83° East 294 338 20,700 1,740 Climbing Kansas City Center
06:21AM 38.7614 -89.5939 83° East 285 328 22,600 1,800 Climbing Kansas City Center
06:22AM 38.7697 -89.4958 84° East 278 320 24,400 1,740 Climbing Kansas City Center
06:23AM 38.7781 -89.3997 84° East 273 314 26,100 1,620 Climbing Kansas City Center
06:24AM 38.7856 -89.3047 84° East 270 311 27,700 1,380 Climbing Kansas City Center
06:25AM 38.7944 -89.2097 83° East 269 310 29,000 600 Climbing Kansas City Center
06:26AM 38.8028 -89.1050 84° East 295 339 29,000  Level Kansas City Center
06:27AM 38.8131 -88.9794 84° East 327 376 29,000  Level Kansas City Center
06:28AM 38.8236 -88.8622 83° East 335 386 29,000  Level Kansas City Center
06:29AM 38.8350 -88.7389 83° East 343 395 29,000  Level Kansas City Center
06:30AM 38.8467 -88.6122 83° East 348 400 29,000  Level Kansas City Center
06:31AM 38.8556 -88.4856 85° East 353 406 29,000  Level Kansas City Center
06:32AM 38.8639 -88.3594 85° East 354 407 29,000  Level Kansas City Center
06:33AM 38.8747 -88.2322 84° East 356 410 29,000  Level Kansas City Center
06:34AM 38.8800 -88.1575 85° East 357 411 29,000  Level Indianapolis Center
06:35AM 38.8892 -88.0297 85° East 357 411 29,000  Level Indianapolis Center
06:36AM 38.8986 -87.9017 85° East 358 412 29,000  Level Indianapolis Center
06:37AM 38.9078 -87.7706 85° East 363 418 29,000 -300 Level Indianapolis Center
06:38AM 38.9172 -87.6392 85° East 368 423 28,500 -600 Descending Indianapolis Center
06:39AM 38.9269 -87.5036 85° East 376 433 27,800 -840 Descending Indianapolis Center
06:40AM 38.9367 -87.3667 85° East 382 440 26,900 -960 Descending Indianapolis Center
06:41AM 38.9461 -87.2267 85° East 388 447 25,900 -960 Descending Indianapolis Center
06:42AM 38.9558 -87.0875 85° East 389 448 25,000 -900 Descending Indianapolis Center
06:43AM 38.9647 -86.9492 85° East 387 445 24,200 -900 Descending Indianapolis Center
06:44AM 38.9739 -86.8144 85° East 378 435 23,200 -960 Descending Indianapolis Center
06:45AM 38.9828 -86.6819 85° East 371 427 22,300 -780 Descending Indianapolis Center
06:46AM 38.9897 -86.5692 85° East 366 421 21,700 -420 Descending Indianapolis Center
06:47AM 38.9981 -86.4414 85° East 362 417 21,500 -240 Descending Indianapolis Center
06:48AM 39.0053 -86.3136 86° East 361 415 21,300 -300 Descending Indianapolis Center
06:49AM 39.0147 -86.1608 85° East 360 414 21,000 -540 Descending Indianapolis Center
06:50AM 39.0222 -86.0344 86° East 358 412 20,300 -900 Descending Indianapolis Center
06:51AM 39.0286 -85.9081 86° East 358 412 19,300 -1,020 Descending Indianapolis Center
06:52AM 39.0364 -85.7836 85° East 351 404 18,300 -1,020 Descending Indianapolis Center
06:53AM 39.0428 -85.6619 86° East 347 399 17,300 -960 Descending Indianapolis Center
06:54AM 39.0500 -85.5436 85° East 337 388 16,400 -960 Descending Indianapolis Center
06:55AM 39.0556 -85.4253 87° East 333 383 15,400 -1,020 Descending Indianapolis Center
06:56AM 39.0606 -85.3147 87° East 317 365 14,400 -1,020 Descending Indianapolis Center
06:57AM 39.0656 -85.2064 87° East 307 353 13,400 -1,380 Descending Indianapolis Center
06:58AM 39.0675 -85.0981 89° East 306 352 11,700 -1,740 Descending Indianapolis Center
06:59AM 39.0683 -84.9928 89° East 297 342 10,000 -1,740 Descending Indianapolis Center
07:00AM 39.0592 -84.8747 96° East 291 335 8,200 -1,680 Descending Indianapolis Center
07:01AM 39.0500 -84.8167 101° East 290 334 7,400 -1,500 Descending Cincinnati TRACON
07:02AM 39.0500 -84.7000 90° East 295 339 5,900 -1,500 Descending Cincinnati TRACON
07:03AM 39.0333 -84.6000 102° East 290 334 4,500 -1,560 Descending Cincinnati TRACON
07:04AM 39.0333 -84.5000 90° East 223 257 2,700 -1,200 Descending Cincinnati TRACON
07:05AM 39.0500 -84.4500 67° East 141 162 1,900 -780 Descending Cincinnati TRACON
07:07AM 39.1000 -84.4167 72° East  Level FlightAware Approximate
07:14AM 39.1033 -84.4186 72° East  Level Estimated